Flight Track Log - Related Links

Times and Time Zones

All times are in EST time to prevent confusion due to time zone crossing. See the ASQ5685 flight status page for this flight to view local times or setup timezone preferences in your user account.

Time Position Orientation Groundspeed Altitude Reporting Facility
EST Latitude Longitude Course Direction KTS MPH feet Rate Location/Type
Wed 09:47:34 AM 33.6167 -84.5167 76° East 233 268 3,700  Level Atlanta TRACON
Wed 09:48:34 AM 33.5833 -84.5833 239° Southwest 265 305 7,000 2,947 Climbing Atlanta TRACON
Wed 09:49:00 AM 33.9026 -84.1117 54° Northeast  Level Estimated
Wed 09:49:28 AM 33.5000 -84.5833 180° South 281 323 9,300  Level Atlanta TRACON
Wed 09:50:00 AM 33.9910 -84.0059 48° Northeast  Level Estimated
Wed 09:50:01 AM 33.4758 -84.5717 158° South 308 354 10,300  Level Atlanta Center
Wed 09:51:00 AM 34.0794 -83.8998 53° Northeast  Level Estimated
Wed 09:51:01 AM 33.4575 -84.4644 102° East 358 412 11,600  Level Atlanta Center
Wed 09:52:00 AM 34.1098 -83.7539 76° East  Level FlightAware Approximate
Wed 09:52:01 AM 33.4578 -84.3425 90° East 386 444 13,100  Level Atlanta Center
Wed 09:53:00 AM 33.5122 -84.2406 57° Northeast 347 399 14,300 1,350 Climbing Atlanta Center
Wed 09:54:01 AM 33.6083 -84.1761 29° Northeast 361 415 15,800 1,700 Climbing Atlanta Center
Wed 09:55:00 AM 33.7086 -84.1136 27° Northeast 390 449 17,700 1,462 Climbing Atlanta Center
Wed 09:56:00 AM 33.7817 -84.0014 52° Northeast 400 460 18,700 850 Climbing Atlanta Center
Wed 09:57:00 AM 33.8464 -83.8761 58° Northeast 430 495 19,400 950 Climbing Atlanta Center
Wed 09:58:00 AM 33.9128 -83.7458 58° Northeast 456 525 20,600 1,300 Climbing Atlanta Center
Wed 09:59:00 AM 33.9958 -83.6078 54° Northeast 456 525 22,000 1,140 Climbing Atlanta Center
Wed 10:00:01 AM 34.0728 -83.4847 53° Northeast 456 525 22,900 744 Climbing Atlanta Center
Wed 10:01:01 AM 34.1556 -83.3586 52° Northeast 466 536 23,500 605 Climbing Atlanta Center
Wed 10:02:00 AM 34.2361 -83.2272 53° Northeast 475 547 24,100 850 Climbing Atlanta Center
Wed 10:03:01 AM 34.3186 -83.0931 53° Northeast 488 562 25,200 1,140 Climbing Atlanta Center
Wed 10:04:01 AM 34.3989 -82.9589 54° Northeast 488 562 26,400 1,008 Climbing Atlanta Center
Wed 10:05:00 AM 34.4811 -82.8317 52° Northeast 485 558 27,200 750 Climbing Atlanta Center
Wed 10:06:01 AM 34.5633 -82.6994 53° Northeast 490 564 27,900 595 Climbing Atlanta Center
Wed 10:07:01 AM 34.6392 -82.5769 53° Northeast 485 558 28,400 500 Climbing Atlanta Center
Wed 10:08:01 AM 34.7208 -82.4417 54° Northeast 485 558 28,900 500 Climbing Atlanta Center
Wed 10:09:01 AM 34.8067 -82.3058 52° Northeast 496 571 29,400 500 Climbing Atlanta Center
Wed 10:10:01 AM 34.8983 -82.1494 54° Northeast 504 580 29,900 504 Climbing Atlanta Center
Wed 10:11:00 AM 34.9839 -82.0158 52° Northeast 509 586 30,400 504 Climbing Atlanta Center
Wed 10:12:00 AM 35.0589 -81.8844 55° Northeast 515 593 30,900 298 Climbing Atlanta Center
Wed 10:13:01 AM 35.1375 -81.7353 57° Northeast 521 600 31,000 50 Climbing Atlanta Center
Wed 10:14:01 AM 35.2181 -81.5803 58° Northeast 526 605 31,000  Level Atlanta Center
Wed 10:15:01 AM 35.3003 -81.4253 57° Northeast 537 618 31,000  Level Atlanta Center
Wed 10:16:00 AM 35.3822 -81.2647 58° Northeast 542 624 31,000  Level Atlanta Center
Wed 10:17:00 AM 35.4661 -81.1039 57° Northeast 553 636 31,000  Level Atlanta Center
Wed 10:18:01 AM 35.5519 -80.9425 57° Northeast 559 643 31,000  Level Atlanta Center
Wed 10:19:01 AM 35.6353 -80.7783 58° Northeast 559 643 31,000  Level Atlanta Center
Wed 10:20:00 AM 35.7206 -80.6164 57° Northeast 559 643 31,000  Level Atlanta Center
Wed 10:21:01 AM 35.8056 -80.4489 58° Northeast 564 649 31,000  Level Atlanta Center
Wed 10:22:01 AM 35.8903 -80.2836 58° Northeast 564 649 31,000  Level Atlanta Center
Wed 10:23:01 AM 35.9783 -80.1025 59° Northeast 564 649 31,000  Level Atlanta Center
Wed 10:25:24 AM 36.1933 -79.7203 55° Northeast 561 646 31,000  Level Washington Center
Wed 10:26:25 AM 36.2844 -79.5575 55° Northeast 566 651 31,000 -148 Level Washington Center
Wed 10:27:26 AM 36.3772 -79.3997 54° Northeast 571 657 30,700 -393 Descending Washington Center
Wed 10:28:27 AM 36.4658 -79.2336 56° Northeast 565 650 30,200 -1,322 Descending Washington Center
Wed 10:29:24 AM 36.5558 -79.0803 54° Northeast 565 650 28,100 -2,136 Descending Washington Center
Wed 10:30:25 AM 36.6417 -78.9261 55° Northeast 555 639 26,000 -1,525 Descending Washington Center
Wed 10:31:26 AM 36.7208 -78.7739 57° Northeast 543 625 25,000 -504 Descending Washington Center
Wed 10:32:24 AM 36.7933 -78.6422 55° Northeast 524 603 25,000  Level Washington Center
Wed 10:33:25 AM 36.8764 -78.4897 56° Northeast 519 597 25,000  Level Washington Center
Wed 10:34:26 AM 36.9592 -78.3394 55° Northeast 519 597 25,000  Level Washington Center
Wed 10:35:24 AM 37.0500 -78.1942 52° Northeast 519 597 25,000 -559 Level Washington Center
Wed 10:36:24 AM 37.1708 -78.1072 30° Northeast 494 568 23,900 -1,091 Descending Washington Center
Wed 10:37:25 AM 37.2894 -78.0169 31° Northeast 494 568 22,800 -942 Descending Washington Center
Wed 10:38:25 AM 37.3975 -77.9289 33° Northeast 487 560 22,000 -397 Descending Washington Center
Wed 10:39:26 AM 37.5161 -77.8383 31° Northeast 472 543 22,000 -446 Level Washington Center
Wed 10:40:26 AM 37.6322 -77.7683 26° Northeast 458 527 21,100 -1,780 Descending Washington Center
Wed 10:41:24 AM 37.7500 -77.7008 24° Northeast 458 527 18,500 -2,420 Descending Washington Center
Wed 10:42:25 AM 37.8575 -77.6406 24° Northeast 438 504 16,300 -2,033 Descending Washington Center
Wed 10:43:25 AM 37.9481 -77.5825 27° Northeast 405 466 14,400 -1,983 Descending Washington Center
Wed 10:44:26 AM 38.0325 -77.5319 25° Northeast 354 407 12,300 -2,083 Descending Washington Center
Wed 10:45:26 AM 38.1144 -77.4894 22° Northeast 327 376 10,200 -1,119 Descending Washington Center
Wed 10:46:24 AM 38.1944 -77.4411 25° Northeast 317 365 10,100 -51 Descending Washington Center
Wed 10:47:24 AM 38.2744 -77.3928 25° Northeast 312 359 10,100 -347 Level Washington Center
Wed 10:48:25 AM 38.3519 -77.3603 18° North 307 353 9,400 -893 Descending Washington Center
Wed 10:49:25 AM 38.4292 -77.3622 359° North 279 321 8,300 -1,150 Descending Washington Center
Wed 10:50:25 AM 38.5022 -77.3639 359° North 272 313 7,100 -1,190 Descending Washington Center
Wed 10:51:26 AM 38.5731 -77.3683 357° North 261 300 5,900 -1,261 Descending Washington Center
Wed 10:52:24 AM 38.6397 -77.3644 North 250 288 4,600 -908 Descending Washington Center
Wed 10:53:25 AM 38.7106 -77.3608 North 245 282 4,100 -293 Descending Washington Center
Wed 10:54:27 AM 38.7833 -77.3500 North 254 292 4,000 -246 Descending Potomac TRACON
Wed 10:55:27 AM 38.8667 -77.3500 360° North 244 281 3,600 -500 Descending Potomac TRACON
Wed 10:56:27 AM 38.9333 -77.3500 360° North 258 297 3,000 -316 Descending Potomac TRACON
Wed 10:57:21 AM 39.0000 -77.3500 360° North 254 292 3,000  Level Potomac TRACON
Wed 10:58:22 AM 39.0667 -77.3500 360° North 246 283 3,000  Level Potomac TRACON
Wed 10:59:22 AM 39.1167 -77.3667 346° North 211 243 3,000 -397 Level Potomac TRACON
Wed 11:00:23 AM 39.0833 -77.4000 218° Southwest 201 231 2,200 -496 Descending Potomac TRACON
Wed 11:01:23 AM 39.0500 -77.4333 218° Southwest 166 191 2,000 -450 Descending Potomac TRACON
Wed 11:02:23 AM 39.0000 -77.4333 180° South 147 169 1,300 -744 Descending Potomac TRACON
Wed 11:03:24 AM 38.9667 -77.4333 180° South 129 148 500 -787 Descending Potomac TRACON
Wed 11:05:00 AM 38.9474 -77.4599 191° South  Level Estimated
Wed 11:12:00 AM 38.9474 -77.4599 191° South  Level Estimated

Login

Don't have an account? Register now (free) for customized features, flight alerts, and more!